createdAt,value
2022-10-31T00:01:39.122Z,8.59
2022-10-31T00:04:07.790Z,8.60
2022-10-31T00:06:36.154Z,8.58
2022-10-31T00:09:05.823Z,8.60
2022-10-31T00:11:34.150Z,8.59
2022-10-31T00:14:03.078Z,8.57
2022-10-31T00:16:31.813Z,8.57
2022-10-31T00:19:03.035Z,8.55
2022-10-31T00:21:32.476Z,8.54
2022-10-31T00:24:01.845Z,8.51
2022-10-31T00:26:32.535Z,8.49
2022-10-31T00:29:01.666Z,8.48
2022-10-31T00:31:30.684Z,8.46
2022-10-31T00:33:59.776Z,8.44
2022-10-31T00:36:28.285Z,8.44
2022-10-31T00:38:57.257Z,8.45
2022-10-31T00:41:25.714Z,8.44
2022-10-31T00:43:53.860Z,8.44
2022-10-31T00:46:22.222Z,8.43
2022-10-31T00:48:50.377Z,8.41
2022-10-31T00:51:18.741Z,8.41
2022-10-31T00:53:47.054Z,8.43
2022-10-31T00:56:15.570Z,8.38
2022-10-31T00:58:43.840Z,8.31
2022-10-31T01:01:12.217Z,8.23
2022-10-31T01:03:41.270Z,8.15
2022-10-31T01:06:12.476Z,8.11
2022-10-31T01:08:40.802Z,8.09
2022-10-31T01:11:15.220Z,8.06
2022-10-31T01:13:44.435Z,8.06
2022-10-31T01:16:15.487Z,8.08
2022-10-31T01:18:44.374Z,8.05
2022-10-31T01:21:22.274Z,8.04
2022-10-31T01:23:51.961Z,8.05
2022-10-31T01:26:23.350Z,8.03
2022-10-31T01:28:57.639Z,8.01
2022-10-31T01:31:29.376Z,8.00
2022-10-31T01:33:58.188Z,7.96
2022-10-31T01:36:32.526Z,7.92
2022-10-31T01:39:04.311Z,7.90
2022-10-31T01:41:35.599Z,7.90
2022-10-31T01:44:24.115Z,7.88
2022-10-31T01:46:57.924Z,7.88
2022-10-31T01:49:32.631Z,7.88
2022-10-31T01:52:06.326Z,7.90
2022-10-31T01:54:40.669Z,7.90
2022-10-31T01:57:11.584Z,7.85
2022-10-31T01:59:48.046Z,7.80
2022-10-31T02:02:18.577Z,7.73
2022-10-31T02:04:48.912Z,7.68
2022-10-31T02:07:58.287Z,7.66
2022-10-31T02:10:27.130Z,7.66
2022-10-31T02:12:58.667Z,7.64
2022-10-31T02:15:27.724Z,7.61
2022-10-31T02:17:56.097Z,7.60
2022-10-31T02:20:27.194Z,7.57
2022-10-31T02:23:23.458Z,7.56
2022-10-31T02:26:10.361Z,7.57
2022-10-31T02:28:48.805Z,7.56
2022-10-31T02:31:28.917Z,7.55
2022-10-31T02:34:20.179Z,7.54
2022-10-31T02:37:03.233Z,7.55
2022-10-31T02:39:42.168Z,7.59
2022-10-31T02:42:33.571Z,7.62
2022-10-31T02:45:13.904Z,7.62
2022-10-31T02:47:44.216Z,7.62
2022-10-31T02:50:17.549Z,7.64
2022-10-31T02:52:45.751Z,7.65
2022-10-31T02:55:26.291Z,7.65
2022-10-31T02:58:21.592Z,7.67
2022-10-31T03:01:15.820Z,7.69
2022-10-31T03:03:59.871Z,7.75
2022-10-31T03:07:01.981Z,7.77
2022-10-31T03:09:42.934Z,7.77
2022-10-31T03:12:20.581Z,7.74
2022-10-31T03:15:04.784Z,7.70
2022-10-31T03:17:37.906Z,7.67
2022-10-31T03:20:09.924Z,7.62
2022-10-31T03:22:43.157Z,7.58
2022-10-31T03:25:13.433Z,7.57
2022-10-31T03:27:44.956Z,7.59
2022-10-31T03:30:13.479Z,7.60
2022-10-31T03:32:47.879Z,7.66
2022-10-31T03:35:20.985Z,7.68
2022-10-31T03:37:51.076Z,7.68
2022-10-31T03:40:22.253Z,7.63
2022-10-31T03:43:01.259Z,7.57
2022-10-31T03:45:32.472Z,7.54
2022-10-31T03:48:01.704Z,7.53
2022-10-31T03:50:41.582Z,7.57
2022-10-31T03:53:17.519Z,7.57
2022-10-31T03:55:59.147Z,7.58
2022-10-31T03:58:33.779Z,7.59
2022-10-31T04:01:07.222Z,7.58
2022-10-31T04:03:39.039Z,7.56
2022-10-31T04:06:10.604Z,7.54
2022-10-31T04:08:51.283Z,7.53
2022-10-31T04:11:25.752Z,7.57
2022-10-31T04:13:56.245Z,7.62
2022-10-31T04:16:26.815Z,7.66
2022-10-31T04:18:55.525Z,7.72
2022-10-31T04:21:31.295Z,7.77
2022-10-31T04:23:59.583Z,7.81
2022-10-31T04:26:27.847Z,7.81
2022-10-31T04:28:56.113Z,7.81
2022-10-31T04:31:24.306Z,7.82
2022-10-31T04:33:52.484Z,7.84
2022-10-31T04:36:20.724Z,7.88
2022-10-31T04:38:48.880Z,7.91
2022-10-31T04:41:17.138Z,7.94
2022-10-31T04:43:45.389Z,7.97
2022-10-31T04:46:13.816Z,8.03
2022-10-31T04:48:42.030Z,8.07
2022-10-31T04:51:10.388Z,8.09
2022-10-31T04:53:38.667Z,8.11
2022-10-31T04:56:07.220Z,8.10
2022-10-31T04:58:35.469Z,8.07
2022-10-31T05:01:03.991Z,8.06
2022-10-31T05:03:32.461Z,8.07
2022-10-31T05:06:00.644Z,8.08
2022-10-31T05:08:28.860Z,8.09
2022-10-31T05:11:04.394Z,8.08
2022-10-31T05:13:33.185Z,8.07
2022-10-31T05:16:01.440Z,8.06
2022-10-31T05:18:29.662Z,8.06
2022-10-31T05:20:57.900Z,8.02
2022-10-31T05:23:26.091Z,7.98
2022-10-31T05:25:54.366Z,7.94
2022-10-31T05:28:22.550Z,7.92
2022-10-31T05:30:51.489Z,7.89
2022-10-31T05:33:19.863Z,7.89
2022-10-31T05:35:48.104Z,7.89
2022-10-31T05:38:16.293Z,7.89
2022-10-31T05:40:44.539Z,7.92
2022-10-31T05:43:12.886Z,7.95
2022-10-31T05:45:41.270Z,7.93
2022-10-31T05:48:09.770Z,7.90
2022-10-31T05:50:37.992Z,7.94
2022-10-31T05:53:06.801Z,7.98
2022-10-31T05:55:35.251Z,7.97
2022-10-31T05:58:03.708Z,7.92
2022-10-31T06:00:32.353Z,7.88
2022-10-31T06:03:02.178Z,7.90
2022-10-31T06:05:31.545Z,7.92
2022-10-31T06:08:00.635Z,7.98
2022-10-31T06:10:29.688Z,7.99
2022-10-31T06:12:58.119Z,8.02
2022-10-31T06:15:26.349Z,8.04
2022-10-31T06:18:06.340Z,8.09
2022-10-31T06:20:34.597Z,8.10
2022-10-31T06:23:03.734Z,8.14
2022-10-31T06:25:32.341Z,8.20
2022-10-31T06:28:00.726Z,8.24
2022-10-31T06:30:29.831Z,8.27
2022-10-31T06:33:05.020Z,8.33
2022-10-31T06:35:33.784Z,8.39
2022-10-31T06:38:02.381Z,8.50
2022-10-31T06:40:30.960Z,8.63
2022-10-31T06:43:01.180Z,8.75
2022-10-31T06:45:29.726Z,8.95
2022-10-31T06:50:47.281Z,9.21
2022-10-31T06:53:16.185Z,9.36
2022-10-31T06:55:44.660Z,9.53
2022-10-31T06:58:12.945Z,9.66
2022-10-31T07:00:41.269Z,9.81
2022-10-31T07:03:14.396Z,10.01
2022-10-31T07:05:43.860Z,10.25
2022-10-31T07:08:14.544Z,10.52
2022-10-31T07:10:44.255Z,10.81
2022-10-31T07:13:15.514Z,11.07
2022-10-31T07:15:45.032Z,11.28
2022-10-31T07:18:13.796Z,11.35
2022-10-31T07:20:42.076Z,11.45
2022-10-31T07:23:12.256Z,11.56
2022-10-31T07:25:41.336Z,11.63
2022-10-31T07:28:10.569Z,11.61
2022-10-31T07:30:39.906Z,11.63
2022-10-31T07:33:08.198Z,11.68
2022-10-31T07:35:36.579Z,11.75
2022-10-31T07:38:12.847Z,11.93
2022-10-31T07:40:42.675Z,12.19
2022-10-31T07:43:14.472Z,12.35
2022-10-31T07:45:43.285Z,12.48
2022-10-31T07:48:11.496Z,12.59
2022-10-31T07:50:40.631Z,12.71
2022-10-31T07:53:11.583Z,12.81
2022-10-31T07:55:40.859Z,12.89
2022-10-31T07:58:12.679Z,12.92
2022-10-31T08:00:43.028Z,12.93
2022-10-31T08:03:15.682Z,12.92
2022-10-31T08:05:46.067Z,12.98
2022-10-31T08:08:15.470Z,13.08
2022-10-31T08:10:43.936Z,13.17
2022-10-31T08:13:14.713Z,13.21
2022-10-31T08:15:43.390Z,13.33
2022-10-31T08:18:16.276Z,13.47
2022-10-31T08:20:45.267Z,13.54
2022-10-31T08:23:15.166Z,13.67
2022-10-31T08:25:43.761Z,13.85
2022-10-31T08:28:13.071Z,14.00
2022-10-31T08:30:42.706Z,14.15
2022-10-31T08:33:16.174Z,14.26
2022-10-31T08:35:45.367Z,14.25
2022-10-31T08:38:15.545Z,14.28
2022-10-31T08:40:44.175Z,14.29
2022-10-31T08:43:16.284Z,14.39
2022-10-31T08:45:46.096Z,14.54
2022-10-31T08:48:16.934Z,14.64
2022-10-31T08:50:47.226Z,14.74
2022-10-31T08:53:18.416Z,14.86
2022-10-31T08:55:48.188Z,14.97
2022-10-31T08:58:19.364Z,15.12
2022-10-31T09:00:50.045Z,15.32
2022-10-31T09:03:23.016Z,15.48
2022-10-31T09:05:52.092Z,15.59
2022-10-31T09:08:20.258Z,15.71
2022-10-31T09:10:48.998Z,15.82
2022-10-31T09:13:24.175Z,15.95
2022-10-31T09:15:54.562Z,16.03
2022-10-31T09:18:24.579Z,16.09
2022-10-31T09:20:53.023Z,16.16
2022-10-31T09:23:23.525Z,16.19
2022-10-31T09:25:53.701Z,16.21
2022-10-31T09:28:24.389Z,16.19
2022-10-31T09:30:54.324Z,16.18
2022-10-31T09:33:23.056Z,16.19
2022-10-31T09:35:51.471Z,16.16
2022-10-31T09:38:22.128Z,16.17
2022-10-31T09:41:16.422Z,16.15
2022-10-31T09:44:07.556Z,16.09
2022-10-31T09:47:15.784Z,16.00
2022-10-31T09:50:12.833Z,15.96
2022-10-31T09:52:49.220Z,15.99
2022-10-31T09:55:22.407Z,16.05
2022-10-31T09:57:51.668Z,16.10
2022-10-31T10:00:22.613Z,16.18
2022-10-31T10:03:05.940Z,16.25
2022-10-31T10:05:43.475Z,16.22
2022-10-31T10:08:24.707Z,16.19
2022-10-31T10:11:07.612Z,16.21
2022-10-31T10:14:11.323Z,16.29
2022-10-31T10:16:55.891Z,16.35
2022-10-31T10:19:45.063Z,16.34
2022-10-31T10:22:55.995Z,16.52
2022-10-31T10:25:26.572Z,16.68
2022-10-31T10:27:57.875Z,16.82
2022-10-31T10:30:41.866Z,16.96
2022-10-31T10:33:21.515Z,17.11
2022-10-31T10:36:01.176Z,17.28
2022-10-31T10:39:01.114Z,17.53
2022-10-31T10:41:34.449Z,17.56
2022-10-31T10:44:02.731Z,17.63
2022-10-31T10:47:08.407Z,17.66
2022-10-31T10:50:06.022Z,17.85
2022-10-31T10:53:00.904Z,17.96
2022-10-31T10:55:53.729Z,18.00
2022-10-31T10:58:21.994Z,18.00
2022-10-31T11:00:51.776Z,18.00
2022-10-31T11:03:21.018Z,18.00
2022-10-31T11:05:52.935Z,17.96
2022-10-31T11:08:35.096Z,17.86
2022-10-31T11:11:19.643Z,17.77
2022-10-31T11:13:51.141Z,17.66
2022-10-31T11:16:36.763Z,17.52
2022-10-31T11:19:14.738Z,17.40
2022-10-31T11:21:43.143Z,17.33
2022-10-31T11:24:11.373Z,17.23
2022-10-31T11:26:41.617Z,17.14
2022-10-31T11:29:15.979Z,17.06
2022-10-31T11:31:47.243Z,16.95
2022-10-31T11:34:25.149Z,16.93
2022-10-31T11:36:53.595Z,16.94
2022-10-31T11:39:25.352Z,16.96
2022-10-31T11:41:55.809Z,16.96
2022-10-31T11:44:28.213Z,16.98
2022-10-31T11:47:01.290Z,17.01
2022-10-31T11:49:45.127Z,17.04
2022-10-31T11:52:21.296Z,16.99
2022-10-31T11:55:16.186Z,17.00
2022-10-31T11:57:50.543Z,17.01
2022-10-31T12:03:34.775Z,17.07
2022-10-31T12:06:22.175Z,17.11
2022-10-31T12:08:51.239Z,17.14
2022-10-31T12:11:36.158Z,17.17
2022-10-31T12:14:15.489Z,17.20
2022-10-31T12:16:52.417Z,17.23
2022-10-31T12:19:34.437Z,17.28
2022-10-31T12:22:23.011Z,17.31
2022-10-31T12:25:15.313Z,17.34
2022-10-31T12:27:49.132Z,17.35
2022-10-31T12:31:06.606Z,17.37
2022-10-31T12:34:16.766Z,17.36
2022-10-31T12:37:01.404Z,17.34
2022-10-31T12:40:08.102Z,17.38
2022-10-31T12:43:10.932Z,17.43
2022-10-31T12:45:56.418Z,17.47
2022-10-31T12:48:51.629Z,17.51
2022-10-31T12:51:44.088Z,17.56
2022-10-31T12:54:27.443Z,17.57
2022-10-31T12:57:18.896Z,17.59
2022-10-31T13:00:17.114Z,17.58
2022-10-31T13:03:04.366Z,17.56
2022-10-31T13:05:38.877Z,17.54
2022-10-31T13:08:15.775Z,17.52
2022-10-31T13:11:12.058Z,17.50
2022-10-31T13:13:45.568Z,17.48
2022-10-31T13:16:18.256Z,17.50
2022-10-31T13:18:51.443Z,17.49
2022-10-31T13:21:27.855Z,17.51
2022-10-31T13:24:00.324Z,17.52
2022-10-31T13:26:43.600Z,17.56
2022-10-31T13:29:28.377Z,17.59
2022-10-31T13:32:05.341Z,17.60
2022-10-31T13:34:36.813Z,17.63
2022-10-31T13:37:40.703Z,17.62
2022-10-31T13:40:27.567Z,17.64
2022-10-31T13:43:12.565Z,17.64
2022-10-31T13:45:54.442Z,17.65
2022-10-31T13:48:28.695Z,17.65
2022-10-31T13:51:03.469Z,17.66
2022-10-31T13:53:37.700Z,17.66
2022-10-31T13:56:17.344Z,17.64
2022-10-31T13:59:23.417Z,17.63
2022-10-31T14:01:58.951Z,17.59
2022-10-31T14:07:25.340Z,17.55
2022-10-31T14:10:22.648Z,17.54
2022-10-31T14:12:51.785Z,17.53
2022-10-31T14:15:25.955Z,17.52
2022-10-31T14:17:58.738Z,17.50
2022-10-31T14:20:36.409Z,17.45
2022-10-31T14:23:34.093Z,17.40
2022-10-31T14:26:32.392Z,17.33
2022-10-31T14:29:23.575Z,17.21
2022-10-31T14:32:12.138Z,17.09
2022-10-31T14:34:44.001Z,16.95
2022-10-31T14:37:32.118Z,16.82
2022-10-31T14:40:17.579Z,16.68
2022-10-31T14:42:51.892Z,16.55
2022-10-31T14:45:55.322Z,16.43
2022-10-31T14:48:41.898Z,16.30
2022-10-31T14:51:27.877Z,16.19
2022-10-31T14:53:58.964Z,16.11
2022-10-31T14:56:39.382Z,16.05
2022-10-31T14:59:16.021Z,15.95
2022-10-31T15:02:03.394Z,15.86
2022-10-31T15:04:33.934Z,15.73
2022-10-31T15:07:05.896Z,15.57
2022-10-31T15:09:37.171Z,15.38
2022-10-31T15:12:25.652Z,15.24
2022-10-31T15:14:54.515Z,15.19
2022-10-31T15:17:25.120Z,15.04
2022-10-31T15:19:54.321Z,14.90
2022-10-31T15:22:25.799Z,14.70
2022-10-31T15:24:57.706Z,14.56
2022-10-31T15:27:26.159Z,14.43
2022-10-31T15:29:57.268Z,14.26
2022-10-31T15:32:30.706Z,14.09
2022-10-31T15:34:59.037Z,13.94
2022-10-31T15:37:28.637Z,13.80
2022-10-31T15:39:56.876Z,13.63
2022-10-31T15:42:31.737Z,13.51
2022-10-31T15:45:04.798Z,13.38
2022-10-31T15:47:34.811Z,13.24
2022-10-31T15:50:13.933Z,13.12
2022-10-31T15:52:48.673Z,13.04
2022-10-31T15:55:22.990Z,12.99
2022-10-31T15:57:58.537Z,12.89
2022-10-31T16:00:30.550Z,12.79
2022-10-31T16:03:15.656Z,12.69
2022-10-31T16:05:50.381Z,12.58
2022-10-31T16:08:30.438Z,12.50
2022-10-31T16:11:01.679Z,12.43
2022-10-31T16:13:36.883Z,12.35
2022-10-31T16:16:34.290Z,12.27
2022-10-31T16:19:06.545Z,12.16
2022-10-31T16:21:39.799Z,12.06
2022-10-31T16:24:29.655Z,12.03
2022-10-31T16:27:06.376Z,11.96
2022-10-31T16:29:43.541Z,11.94
2022-10-31T16:32:36.087Z,11.93
2022-10-31T16:35:13.200Z,11.85
2022-10-31T16:37:42.117Z,11.78
2022-10-31T16:40:15.635Z,11.79
2022-10-31T16:42:45.525Z,11.81
2022-10-31T16:45:23.626Z,11.87
2022-10-31T16:47:52.898Z,11.94
2022-10-31T16:50:27.103Z,12.00
2022-10-31T16:55:46.262Z,12.10
2022-10-31T16:58:19.278Z,12.16
2022-10-31T17:00:48.299Z,12.21
2022-10-31T17:03:17.236Z,12.24
2022-10-31T17:05:45.937Z,12.28
2022-10-31T17:08:14.174Z,12.30
2022-10-31T17:10:45.164Z,12.32
2022-10-31T17:13:20.337Z,12.33
2022-10-31T17:15:55.320Z,12.33
2022-10-31T17:18:27.640Z,12.33
2022-10-31T17:21:01.765Z,12.35
2022-10-31T17:23:30.616Z,12.36
2022-10-31T17:25:59.521Z,12.39
2022-10-31T17:28:28.310Z,12.38
2022-10-31T17:30:59.651Z,12.37
2022-10-31T17:33:28.821Z,12.31
2022-10-31T17:35:57.247Z,12.29
2022-10-31T17:38:25.562Z,12.29
2022-10-31T17:40:53.967Z,12.31
2022-10-31T17:43:27.288Z,12.31
2022-10-31T17:45:55.553Z,12.33
2022-10-31T17:48:24.436Z,12.33
2022-10-31T17:50:52.797Z,12.31
2022-10-31T17:53:21.596Z,12.26
2022-10-31T17:55:50.139Z,12.21
2022-10-31T17:58:18.644Z,12.15
2022-10-31T18:00:50.482Z,12.08
2022-10-31T18:03:20.236Z,12.03
2022-10-31T18:05:57.398Z,11.97
2022-10-31T18:08:31.344Z,11.97
2022-10-31T18:11:01.108Z,12.00
2022-10-31T18:13:29.749Z,12.00
2022-10-31T18:15:57.977Z,11.99
2022-10-31T18:18:26.649Z,11.98
2022-10-31T18:20:58.324Z,11.91
2022-10-31T18:23:27.032Z,11.84
2022-10-31T18:25:55.929Z,11.79
2022-10-31T18:28:25.273Z,11.75
2022-10-31T18:30:53.538Z,11.72
2022-10-31T18:33:22.401Z,11.71
2022-10-31T18:35:51.096Z,11.71
2022-10-31T18:38:20.454Z,11.69
2022-10-31T18:40:49.263Z,11.69
2022-10-31T18:43:18.073Z,11.72
2022-10-31T18:45:49.387Z,11.77
2022-10-31T18:48:19.688Z,11.79
2022-10-31T18:50:48.541Z,11.81
2022-10-31T18:53:17.758Z,11.85
2022-10-31T18:55:50.062Z,11.87
2022-10-31T18:58:19.604Z,11.89
2022-10-31T19:00:48.306Z,11.88
2022-10-31T19:03:19.697Z,11.85
2022-10-31T19:05:56.735Z,11.83
2022-10-31T19:11:04.755Z,11.84
2022-10-31T19:13:35.110Z,11.83
2022-10-31T19:16:06.790Z,11.79
2022-10-31T19:18:35.975Z,11.74
2022-10-31T19:21:09.315Z,11.73
2022-10-31T19:23:38.683Z,11.71
2022-10-31T19:26:08.022Z,11.70
2022-10-31T19:28:40.035Z,11.68
2022-10-31T19:31:10.051Z,11.69
2022-10-31T19:33:38.934Z,11.70
2022-10-31T19:36:11.395Z,11.71
2022-10-31T19:38:42.343Z,11.70
2022-10-31T19:41:14.349Z,11.69
2022-10-31T19:43:43.724Z,11.70
2022-10-31T19:46:22.082Z,11.70
2022-10-31T19:48:51.957Z,11.70
2022-10-31T19:51:22.418Z,11.68
2022-10-31T19:53:50.985Z,11.65
2022-10-31T19:56:21.495Z,11.63
2022-10-31T19:58:50.266Z,11.63
2022-10-31T20:01:23.021Z,11.66
2022-10-31T20:03:52.498Z,11.68
2022-10-31T20:06:27.633Z,11.69
2022-10-31T20:08:57.538Z,11.72
2022-10-31T20:11:27.630Z,11.75
2022-10-31T20:13:57.851Z,11.77
2022-10-31T20:16:27.990Z,11.78
2022-10-31T20:18:57.980Z,11.79
2022-10-31T20:21:29.039Z,11.83
2022-10-31T20:24:01.419Z,11.86
2022-10-31T20:26:31.508Z,11.92
2022-10-31T20:29:01.851Z,11.92
2022-10-31T20:31:34.530Z,11.89
2022-10-31T20:34:05.617Z,11.88
2022-10-31T20:36:34.973Z,11.86
2022-10-31T20:39:04.896Z,11.86
2022-10-31T20:41:37.858Z,11.85
2022-10-31T20:44:07.996Z,11.84
2022-10-31T20:46:37.584Z,11.82
2022-10-31T20:49:06.486Z,11.79
2022-10-31T20:51:35.593Z,11.82
2022-10-31T20:54:04.124Z,11.85
2022-10-31T20:56:32.664Z,11.85
2022-10-31T20:59:00.958Z,11.84
2022-10-31T21:01:31.687Z,11.84
2022-10-31T21:04:00.067Z,11.81
2022-10-31T21:06:29.867Z,11.77
2022-10-31T21:08:59.406Z,11.74
2022-10-31T21:11:28.835Z,11.74
2022-10-31T21:13:59.822Z,11.71
2022-10-31T21:16:31.552Z,11.68
2022-10-31T21:19:01.071Z,11.67
2022-10-31T21:21:36.164Z,11.67
2022-10-31T21:24:13.680Z,11.66
2022-10-31T21:26:46.496Z,11.65
2022-10-31T21:29:15.512Z,11.65
2022-10-31T21:31:45.241Z,11.66
2022-10-31T21:34:13.855Z,11.66
2022-10-31T21:36:42.318Z,11.66
2022-10-31T21:39:10.851Z,11.65
2022-10-31T21:41:39.112Z,11.65
2022-10-31T21:44:07.380Z,11.65
2022-10-31T21:46:37.315Z,11.65
2022-10-31T21:49:05.820Z,11.64
2022-10-31T21:51:36.602Z,11.64
2022-10-31T21:54:23.925Z,11.63
2022-10-31T21:56:52.503Z,11.64
2022-10-31T21:59:20.846Z,11.63
2022-10-31T22:01:49.950Z,11.63
2022-10-31T22:04:19.304Z,11.66
2022-10-31T22:06:47.724Z,11.67
2022-10-31T22:09:17.510Z,11.71
2022-10-31T22:11:45.869Z,11.69
2022-10-31T22:14:15.509Z,11.67
2022-10-31T22:16:43.811Z,11.65
2022-10-31T22:19:13.896Z,11.62
2022-10-31T22:21:47.065Z,11.59
2022-10-31T22:24:16.905Z,11.56
2022-10-31T22:26:45.229Z,11.54
2022-10-31T22:29:16.603Z,11.51
2022-10-31T22:31:48.486Z,11.47
2022-10-31T22:34:19.430Z,11.48
2022-10-31T22:36:47.748Z,11.47
2022-10-31T22:39:16.037Z,11.46
2022-10-31T22:41:44.301Z,11.44
2022-10-31T22:44:12.584Z,11.44
2022-10-31T22:46:40.997Z,11.45
2022-10-31T22:49:15.107Z,11.50
2022-10-31T22:51:45.292Z,11.56
2022-10-31T22:54:16.470Z,11.62
2022-10-31T22:56:45.431Z,11.60
2022-10-31T22:59:15.439Z,11.62
2022-10-31T23:01:47.384Z,11.66
2022-10-31T23:04:16.916Z,11.69
2022-10-31T23:06:46.110Z,11.72
2022-10-31T23:09:16.754Z,11.71
2022-10-31T23:11:46.089Z,11.70
2022-10-31T23:14:21.180Z,11.69
2022-10-31T23:16:52.227Z,11.65
2022-10-31T23:19:23.609Z,11.61
2022-10-31T23:21:57.656Z,11.58
2022-10-31T23:24:36.385Z,11.59
2022-10-31T23:27:13.660Z,11.61
2022-10-31T23:29:44.588Z,11.67
2022-10-31T23:32:22.881Z,11.68
2022-10-31T23:34:53.432Z,11.68
2022-10-31T23:37:23.896Z,11.65
2022-10-31T23:39:52.173Z,11.62
2022-10-31T23:42:20.749Z,11.60
2022-10-31T23:44:49.430Z,11.58
2022-10-31T23:47:18.941Z,11.55
2022-10-31T23:49:47.359Z,11.50
2022-10-31T23:52:16.432Z,11.47
2022-10-31T23:54:44.937Z,11.48
2022-10-31T23:57:14.910Z,11.51
2022-10-31T23:59:44.035Z,11.51
